Terminal Aerodrome Forecast
Issued by NWS Wakefield, VA

Current Version | Previous Version | Text Only | Print | Product List | Glossary On
Versions: 1 2 3 4 5 6 7 8 9 10 11 12 13 14 15 16 17 18
000
FTUS41 KAKQ 021720
TAFRIC
TAF
KRIC 021720Z 0218/0318 04008KT P6SM BKN020
      TEMPO 0218/0222 2SM SHRA BKN012
     FM022200 03008KT 4SM -RA OVC010
     FM030300 02008KT 3SM BR OVC006=

USA.gov is the U.S. government's official web portal to all federal, state and local government web resources and services.